Delta Mariner — WCZ7837 — position and weather

sailwx.info

Track history (hours):
 
Tides and Currents Weather Stations Pressure Air Temp Water Temp Dewpoint Dewpoint Depression Visibility Wind Speed Wind Dir Waves Ship Positions

Delta Mariner

Owner: FOSS MARITIME COMPANY, SEATTLE, WA. More information available from US FCC via Universal Licensing System and Coast Guard Vessel Documentation Center.

Last reported at 2018-Feb-21 18:59 UTC. Time now 2018-Feb-21 19:21 UTC.
Position N 09°22' W 079°56'.

Length 95 m; draft 4.2 m.

Type: Cargo ship. MMSI: 338731000.

Date/timePositionNaut miles runAvg speedWind from/ knotsBaromVisibWave heightAir tempDewpointWater temp
2018-Feb-21 18:59N 09°22' W 079°56'0 0.0
2018-Feb-21 18:30N 09°22' W 079°56'  
2018-Feb-12 17:41N 32°05' W 091°05'213.5
2018-Feb-12 17:30N 32°07' W 091°07'611.3
2018-Feb-12 17:00N 32°09' W 091°00'714.0
2018-Feb-12 16:30N 32°16' W 090°58'510.4
2018-Feb-12 16:00N 32°21' W 090°55'5 9.5
2018-Feb-12 15:31N 32°24' W 090°59'713.2
2018-Feb-12 15:00N 32°28' W 091°06'612.9
2018-Feb-12 14:30N 32°34' W 091°06'  
Track history (hours):
 
Tides and Currents Weather Stations Pressure Air Temp Water Temp Dewpoint Dewpoint Depression Visibility Wind Speed Wind Dir Waves Ship Positions

Delta Mariner

Owner: FOSS MARITIME COMPANY, SEATTLE, WA. More information available from US FCC via Universal Licensing System and Coast Guard Vessel Documentation Center.

Last reported at 2018-Feb-21 18:59 UTC. Time now 2018-Feb-21 19:21 UTC.
Position N 09°22' W 079°56'.

Length 95 m; draft 4.2 m.

Type: Cargo ship. MMSI: 338731000.

Date/timePositionNaut miles runAvg speedWind from/ knotsBaromVisibWave heightAir tempDewpointWater temp
2018-Feb-21 18:59N 09°22' W 079°56'0 0.0
2018-Feb-21 18:30N 09°22' W 079°56'  
2018-Feb-12 17:41N 32°05' W 091°05'213.5
2018-Feb-12 17:30N 32°07' W 091°07'611.3
2018-Feb-12 17:00N 32°09' W 091°00'714.0
2018-Feb-12 16:30N 32°16' W 090°58'510.4
2018-Feb-12 16:00N 32°21' W 090°55'5 9.5
2018-Feb-12 15:31N 32°24' W 090°59'713.2
2018-Feb-12 15:00N 32°28' W 091°06'612.9
2018-Feb-12 14:30N 32°34' W 091°06'  

Dump ship's entire track history